sensor_id;sensor_type;location;lat;lon;timestamp;temperature;humidity
3736;DHT22;1883;48.202;16.310;2023-02-13T02:25:03;4.60;51.40
3736;DHT22;1883;48.202;16.310;2023-02-13T02:27:58;4.60;51.50
3736;DHT22;1883;48.202;16.310;2023-02-13T02:30:58;4.70;51.70
3736;DHT22;1883;48.202;16.310;2023-02-13T02:33:42;4.70;51.90
3736;DHT22;1883;48.202;16.310;2023-02-13T02:36:23;4.50;51.80
3736;DHT22;1883;48.202;16.310;2023-02-13T02:39:02;4.60;51.70
3736;DHT22;1883;48.202;16.310;2023-02-13T02:41:38;4.50;51.60
3736;DHT22;1883;48.202;16.310;2023-02-13T02:44:19;4.50;51.50
3736;DHT22;1883;48.202;16.310;2023-02-13T02:47:08;4.60;51.50
3736;DHT22;1883;48.202;16.310;2023-02-13T02:52:47;4.60;51.60
3736;DHT22;1883;48.202;16.310;2023-02-13T02:55:29;4.50;51.60
3736;DHT22;1883;48.202;16.310;2023-02-13T02:58:02;4.50;51.60
3736;DHT22;1883;48.202;16.310;2023-02-13T03:00:49;4.50;51.80
3736;DHT22;1883;48.202;16.310;2023-02-13T03:03:36;4.60;52.00
3736;DHT22;1883;48.202;16.310;2023-02-13T03:06:25;4.60;52.30
3736;DHT22;1883;48.202;16.310;2023-02-13T03:08:57;4.70;52.60
3736;DHT22;1883;48.202;16.310;2023-02-13T03:11:48;4.70;52.70
3736;DHT22;1883;48.202;16.310;2023-02-13T03:14:34;4.70;53.10
3736;DHT22;1883;48.202;16.310;2023-02-13T03:17:02;4.80;53.40
3736;DHT22;1883;48.202;16.310;2023-02-13T03:19:56;4.80;53.70
3736;DHT22;1883;48.202;16.310;2023-02-13T03:22:57;4.80;54.00
3736;DHT22;1883;48.202;16.310;2023-02-13T03:25:29;4.80;54.30
3736;DHT22;1883;48.202;16.310;2023-02-13T03:30:46;4.90;54.80
3736;DHT22;1883;48.202;16.310;2023-02-13T03:33:29;4.90;55.10
3736;DHT22;1883;48.202;16.310;2023-02-13T03:36:05;4.90;55.40
3736;DHT22;1883;48.202;16.310;2023-02-13T03:51:49;5.00;56.40
3736;DHT22;1883;48.202;16.310;2023-02-13T03:54:21;5.00;56.40
3736;DHT22;1883;48.202;16.310;2023-02-13T03:57:25;5.00;56.30
3736;DHT22;1883;48.202;16.310;2023-02-13T04:00:16;5.00;56.30
3736;DHT22;1883;48.202;16.310;2023-02-13T04:02:51;5.00;56.60
3736;DHT22;1883;48.202;16.310;2023-02-13T04:05:22;5.00;56.60
3736;DHT22;1883;48.202;16.310;2023-02-13T04:07:52;5.00;56.60
3736;DHT22;1883;48.202;16.310;2023-02-13T04:13:01;5.00;56.80
3736;DHT22;1883;48.202;16.310;2023-02-13T04:15:33;5.10;56.80
3736;DHT22;1883;48.202;16.310;2023-02-13T04:18:05;5.10;57.00
3736;DHT22;1883;48.202;16.310;2023-02-13T04:20:34;5.10;56.90
3736;DHT22;1883;48.202;16.310;2023-02-13T04:33:24;5.10;57.40
3736;DHT22;1883;48.202;16.310;2023-02-13T04:35:52;5.10;57.50
3736;DHT22;1883;48.202;16.310;2023-02-13T04:38:20;5.20;57.80
3736;DHT22;1883;48.202;16.310;2023-02-13T04:40:47;5.10;58.10
3736;DHT22;1883;48.202;16.310;2023-02-13T04:43:15;5.20;58.20
3736;DHT22;1883;48.202;16.310;2023-02-13T04:45:42;5.10;58.30
3736;DHT22;1883;48.202;16.310;2023-02-13T04:48:09;5.20;58.50
3736;DHT22;1883;48.202;16.310;2023-02-13T04:50:38;5.20;58.60
3736;DHT22;1883;48.202;16.310;2023-02-13T04:53:05;5.30;59.00
3736;DHT22;1883;48.202;16.310;2023-02-13T04:55:32;5.30;59.20
3736;DHT22;1883;48.202;16.310;2023-02-13T04:58:00;5.30;59.40
